Time;durP1;ratioP1;P1;durP2;ratioP2;P2;SDS_P1;SDS_P2;PMS_P1;PMS_P2;Temp;Humidity;BMP_temperature;BMP_pressure;BME280_temperature;BME280_humidity;BME280_pressure;Samples;Min_cycle;Max_cycle;Signal;HPM_P1;HPM_P2
2023/12/13 00:00:46;;;;;;;22.80;14.88;;;;;;;;;;10302815;28;20070;-75
2023/12/13 00:05:42;;;;;;;21.92;13.55;;;;;;;;;;10297545;28;20052;-74
2023/12/13 00:10:38;;;;;;;18.55;13.40;;;;;;;;;;10302161;28;20059;-74
2023/12/13 00:15:35;;;;;;;23.17;14.90;;;;;;;;;;10296324;28;20053;-75
2023/12/13 00:20:31;;;;;;;23.05;15.85;;;;;;;;;;10296450;28;20044;-75
2023/12/13 00:25:30;;;;;;;21.33;14.15;;;;;;;;;;10307586;28;20060;-75
2023/12/13 00:30:26;;;;;;;25.48;15.95;;;;;;;;;;10302614;28;20135;-75
2023/12/13 00:35:23;;;;;;;23.60;14.82;;;;;;;;;;10300594;28;20559;-75
2023/12/13 00:40:22;;;;;;;29.23;14.35;;;;;;;;;;10298882;28;20052;-75
2023/12/13 00:45:18;;;;;;;26.25;15.43;;;;;;;;;;10281389;28;20715;-74
2023/12/13 00:50:14;;;;;;;25.70;14.73;;;;;;;;;;10306625;28;20508;-75
2023/12/13 00:55:11;;;;;;;18.38;13.35;;;;;;;;;;10294100;28;20052;-74
2023/12/13 01:00:09;;;;;;;21.85;15.25;;;;;;;;;;10285189;28;20059;-74
2023/12/13 01:05:06;;;;;;;20.48;13.02;;;;;;;;;;10303071;28;20095;-75
2023/12/13 01:10:04;;;;;;;18.45;12.55;;;;;;;;;;10308263;28;20059;-75
2023/12/13 01:15:00;;;;;;;17.40;12.55;;;;;;;;;;10305806;28;20056;-75
2023/12/13 01:19:56;;;;;;;15.23;11.25;;;;;;;;;;10310815;28;20060;-74
2023/12/13 01:24:54;;;;;;;14.20;11.18;;;;;;;;;;10307872;28;20401;-74
2023/12/13 01:29:51;;;;;;;16.02;10.95;;;;;;;;;;10290146;28;20413;-74
2023/12/13 01:34:47;;;;;;;13.20;10.95;;;;;;;;;;10300859;28;20045;-74
2023/12/13 01:39:43;;;;;;;11.70;9.98;;;;;;;;;;10306294;28;20419;-75
2023/12/13 01:44:40;;;;;;;11.65;9.23;;;;;;;;;;10304112;28;20052;-75
2023/12/13 01:49:36;;;;;;;12.90;9.07;;;;;;;;;;10311040;28;20069;-75
2023/12/13 01:54:34;;;;;;;10.55;9.05;;;;;;;;;;10304183;28;20048;-74
2023/12/13 01:59:32;;;;;;;11.15;8.65;;;;;;;;;;10300047;28;20075;-74
2023/12/13 02:04:29;;;;;;;11.60;9.35;;;;;;;;;;10307991;28;20120;-75
2023/12/13 02:09:25;;;;;;;11.00;8.45;;;;;;;;;;10304592;28;20044;-74
2023/12/13 02:14:22;;;;;;;12.07;9.00;;;;;;;;;;10302183;28;20110;-74
2023/12/13 02:19:18;;;;;;;8.48;7.60;;;;;;;;;;10290721;28;20101;-73
2023/12/13 02:24:17;;;;;;;9.00;8.10;;;;;;;;;;10295488;28;20106;-74
2023/12/13 02:29:14;;;;;;;10.48;8.60;;;;;;;;;;10293124;28;20059;-75
2023/12/13 02:34:10;;;;;;;8.93;8.07;;;;;;;;;;10296855;28;20052;-74
2023/12/13 02:39:07;;;;;;;9.15;8.35;;;;;;;;;;10292987;28;20401;-74
2023/12/13 02:44:03;;;;;;;10.10;7.90;;;;;;;;;;10311544;28;20048;-74
2023/12/13 02:48:59;;;;;;;8.63;7.63;;;;;;;;;;10292382;28;20542;-75
2023/12/13 02:53:56;;;;;;;8.75;7.85;;;;;;;;;;10306566;28;20059;-74
2023/12/13 02:58:52;;;;;;;10.57;7.40;;;;;;;;;;10301363;28;20044;-74
2023/12/13 03:03:49;;;;;;;8.32;7.47;;;;;;;;;;10287425;28;20091;-74
2023/12/13 03:08:45;;;;;;;8.82;8.00;;;;;;;;;;10316418;28;20124;-73
2023/12/13 03:13:41;;;;;;;8.80;7.90;;;;;;;;;;10308410;28;20041;-73
2023/12/13 03:18:38;;;;;;;10.07;8.27;;;;;;;;;;10303888;28;20041;-73
2023/12/13 03:23:34;;;;;;;8.93;8.02;;;;;;;;;;10299208;28;20045;-74
2023/12/13 03:28:31;;;;;;;12.10;8.75;;;;;;;;;;10301673;28;20425;-74
2023/12/13 03:33:27;;;;;;;9.40;8.48;;;;;;;;;;10307243;28;20052;-75
2023/12/13 03:38:24;;;;;;;8.98;8.18;;;;;;;;;;10296238;28;20394;-74
2023/12/13 03:43:20;;;;;;;10.10;9.05;;;;;;;;;;10301915;28;20508;-74
2023/12/13 03:48:16;;;;;;;9.05;8.15;;;;;;;;;;10305705;28;20079;-75
2023/12/13 03:53:13;;;;;;;10.25;8.02;;;;;;;;;;10296992;28;20045;-75
2023/12/13 03:58:09;;;;;;;9.35;8.45;;;;;;;;;;10300652;28;20057;-75
2023/12/13 04:03:06;;;;;;;10.82;9.40;;;;;;;;;;10300699;28;20511;-74
2023/12/13 04:08:03;;;;;;;10.57;8.13;;;;;;;;;;10320527;28;20052;-74
2023/12/13 04:12:59;;;;;;;8.50;7.65;;;;;;;;;;10303988;28;20094;-73
2023/12/13 04:17:55;;;;;;;9.05;8.13;;;;;;;;;;10302273;28;20044;-74
2023/12/13 04:22:52;;;;;;;9.40;8.50;;;;;;;;;;10293549;28;20045;-74
2023/12/13 04:27:48;;;;;;;9.68;8.48;;;;;;;;;;10293832;28;20131;-74
2023/12/13 04:32:45;;;;;;;8.45;7.40;;;;;;;;;;10316072;28;20074;-74
2023/12/13 04:37:41;;;;;;;9.20;7.93;;;;;;;;;;10307426;28;20049;-74
2023/12/13 04:42:37;;;;;;;9.68;8.60;;;;;;;;;;10306963;28;20095;-73
2023/12/13 04:47:34;;;;;;;10.10;9.05;;;;;;;;;;10304694;28;20056;-74
2023/12/13 04:52:30;;;;;;;9.98;8.98;;;;;;;;;;10277494;28;20059;-74
2023/12/13 04:57:27;;;;;;;10.18;9.13;;;;;;;;;;10276391;28;20079;-74
2023/12/13 05:02:23;;;;;;;10.18;9.18;;;;;;;;;;10299041;28;20056;-74
2023/12/13 05:07:20;;;;;;;12.45;10.10;;;;;;;;;;10304766;28;20095;-75
2023/12/13 05:12:17;;;;;;;11.02;10.02;;;;;;;;;;10301555;28;20048;-74
2023/12/13 05:17:13;;;;;;;11.52;10.43;;;;;;;;;;10306083;28;20078;-74
2023/12/13 05:22:09;;;;;;;12.35;9.38;;;;;;;;;;10306399;28;20057;-74
2023/12/13 05:27:06;;;;;;;11.05;9.95;;;;;;;;;;10315312;28;20084;-74
2023/12/13 05:32:02;;;;;;;11.73;9.70;;;;;;;;;;10302355;28;20045;-74
2023/12/13 05:36:59;;;;;;;11.18;10.07;;;;;;;;;;10304101;28;20057;-73
2023/12/13 05:41:56;;;;;;;10.57;9.43;;;;;;;;;;10301769;28;20081;-75
2023/12/13 05:46:53;;;;;;;12.02;9.50;;;;;;;;;;10299510;28;20053;-74
2023/12/13 05:51:49;;;;;;;14.10;9.95;;;;;;;;;;10288632;28;20044;-74
2023/12/13 05:56:45;;;;;;;13.90;10.20;;;;;;;;;;10269338;28;20045;-74
2023/12/13 06:01:42;;;;;;;17.55;10.75;;;;;;;;;;10286737;28;20094;-74
2023/12/13 06:06:44;;;;;;;12.27;10.45;;;;;;;;;;10303913;28;20056;-73
2023/12/13 06:11:41;;;;;;;13.98;10.65;;;;;;;;;;10307437;28;20087;-75
2023/12/13 06:16:37;;;;;;;12.20;10.90;;;;;;;;;;10298633;28;20057;-73
2023/12/13 06:21:34;;;;;;;13.07;10.90;;;;;;;;;;10291724;28;20060;-74
2023/12/13 06:26:30;;;;;;;15.07;11.98;;;;;;;;;;10304462;28;20068;-75
2023/12/13 06:31:26;;;;;;;14.40;11.73;;;;;;;;;;10302522;28;20049;-74
2023/12/13 06:36:23;;;;;;;12.88;11.27;;;;;;;;;;10296991;28;20419;-74
2023/12/13 06:41:19;;;;;;;14.23;11.57;;;;;;;;;;10291245;28;20529;-72
2023/12/13 06:46:15;;;;;;;15.82;12.10;;;;;;;;;;10286600;28;20057;-74
2023/12/13 06:51:12;;;;;;;15.00;11.10;;;;;;;;;;10282544;28;20053;-74
2023/12/13 06:56:08;;;;;;;15.10;11.43;;;;;;;;;;10302403;28;20052;-75
2023/12/13 07:01:05;;;;;;;13.20;11.90;;;;;;;;;;10295708;28;20056;-74
2023/12/13 07:06:02;;;;;;;15.25;11.38;;;;;;;;;;10302879;28;20040;-74
2023/12/13 07:10:59;;;;;;;15.20;11.68;;;;;;;;;;10294865;28;20044;-74
2023/12/13 07:15:55;;;;;;;13.07;10.57;;;;;;;;;;10292524;28;20079;-74
2023/12/13 07:20:52;;;;;;;16.48;11.52;;;;;;;;;;10299857;28;20072;-75
2023/12/13 07:25:48;;;;;;;13.07;11.13;;;;;;;;;;10303003;28;20052;-74
2023/12/13 07:30:45;;;;;;;13.73;11.38;;;;;;;;;;10293135;28;20129;-75
2023/12/13 07:36:01;;;;;;;12.65;10.80;;;;;;;;;;10301960;28;20049;-73
2023/12/13 07:40:57;;;;;;;13.70;11.60;;;;;;;;;;10300536;28;20055;-75
2023/12/13 07:45:54;;;;;;;12.30;10.98;;;;;;;;;;10300678;28;20444;-75
2023/12/13 07:50:51;;;;;;;12.52;11.23;;;;;;;;;;10289461;28;20060;-75
2023/12/13 07:55:47;;;;;;;13.60;10.48;;;;;;;;;;10298757;28;20547;-75
2023/12/13 08:00:44;;;;;;;14.25;12.15;;;;;;;;;;10296175;28;20060;-74
2023/12/13 08:05:41;;;;;;;14.98;10.27;;;;;;;;;;10303666;28;20055;-73
2023/12/13 08:10:37;;;;;;;14.82;11.07;;;;;;;;;;10313591;28;20083;-74
2023/12/13 08:15:33;;;;;;;14.40;10.15;;;;;;;;;;10317076;28;20049;-73
2023/12/13 08:20:30;;;;;;;13.70;10.82;;;;;;;;;;10318877;28;20059;-74
2023/12/13 08:25:26;;;;;;;12.15;10.80;;;;;;;;;;10306437;28;20056;-74
2023/12/13 08:30:23;;;;;;;10.63;9.70;;;;;;;;;;10294625;28;20052;-73
2023/12/13 08:35:19;;;;;;;11.35;9.90;;;;;;;;;;10285597;28;20059;-73
2023/12/13 08:40:15;;;;;;;11.98;10.77;;;;;;;;;;10297855;28;20057;-73
2023/12/13 08:45:12;;;;;;;12.70;10.32;;;;;;;;;;10297939;28;20461;-75
2023/12/13 08:50:08;;;;;;;11.50;10.30;;;;;;;;;;10314067;28;20114;-75
2023/12/13 08:55:08;;;;;;;10.75;9.73;;;;;;;;;;10297774;28;20060;-73
2023/12/13 09:00:06;;;;;;;11.55;10.32;;;;;;;;;;10302269;28;20052;-73
2023/12/13 09:05:07;;;;;;;11.25;10.05;;;;;;;;;;10308822;28;20053;-73
2023/12/13 09:10:05;;;;;;;14.43;10.98;;;;;;;;;;10310131;28;20052;-73
2023/12/13 09:15:01;;;;;;;14.73;10.82;;;;;;;;;;10300291;28;20045;-73
2023/12/13 09:19:57;;;;;;;9.57;8.70;;;;;;;;;;10301871;28;20056;-73
2023/12/13 09:24:54;;;;;;;13.02;11.18;;;;;;;;;;10301779;28;20140;-74
2023/12/13 09:29:52;;;;;;;12.27;10.52;;;;;;;;;;10295741;28;20098;-75
2023/12/13 09:34:48;;;;;;;12.50;10.60;;;;;;;;;;10304998;28;20508;-75
2023/12/13 09:39:45;;;;;;;13.73;10.68;;;;;;;;;;10303893;28;20573;-75
2023/12/13 09:44:44;;;;;;;13.13;10.52;;;;;;;;;;10297294;28;20114;-75
2023/12/13 09:49:40;;;;;;;12.30;10.80;;;;;;;;;;10306828;28;20040;-75
2023/12/13 09:54:41;;;;;;;14.07;11.15;;;;;;;;;;10287054;28;20118;-75
2023/12/13 09:59:38;;;;;;;16.02;11.27;;;;;;;;;;10291431;28;20049;-74
2023/12/13 10:04:34;;;;;;;12.70;10.50;;;;;;;;;;10291722;28;20423;-75
2023/12/13 10:09:31;;;;;;;14.25;10.10;;;;;;;;;;10298600;28;20048;-74
2023/12/13 10:14:29;;;;;;;13.00;9.55;;;;;;;;;;10291071;28;20122;-75
2023/12/13 10:19:26;;;;;;;11.20;10.20;;;;;;;;;;10295872;28;20052;-75
2023/12/13 10:24:23;;;;;;;11.88;9.63;;;;;;;;;;10295506;28;20044;-75
2023/12/13 10:29:20;;;;;;;11.60;9.82;;;;;;;;;;10311282;28;20048;-75
2023/12/13 10:34:17;;;;;;;11.75;10.60;;;;;;;;;;10304722;28;20072;-75
2023/12/13 10:39:13;;;;;;;10.27;9.30;;;;;;;;;;10306561;28;20082;-75
2023/12/13 10:44:15;;;;;;;10.20;9.15;;;;;;;;;;10290655;28;20061;-74
2023/12/13 10:49:13;;;;;;;10.25;9.27;;;;;;;;;;10302429;28;20539;-75
2023/12/13 10:54:13;;;;;;;10.35;9.30;;;;;;;;;;10300467;28;20516;-75
2023/12/13 10:59:10;;;;;;;11.65;9.13;;;;;;;;;;10304595;28;20468;-75
2023/12/13 11:04:09;;;;;;;9.68;8.80;;;;;;;;;;10299758;28;20102;-75
2023/12/13 11:09:20;;;;;;;10.75;9.77;;;;;;;;;;10279293;28;20059;-76
2023/12/13 11:14:18;;;;;;;11.60;9.60;;;;;;;;;;10297688;28;20095;-76
2023/12/13 11:19:15;;;;;;;9.63;8.73;;;;;;;;;;10290966;28;20074;-76
2023/12/13 11:24:16;;;;;;;10.50;8.73;;;;;;;;;;10300091;28;20053;-75
2023/12/13 11:29:13;;;;;;;9.13;8.32;;;;;;;;;;10304071;28;20512;-75
2023/12/13 11:34:10;;;;;;;8.63;7.93;;;;;;;;;;10275152;28;20465;-75
2023/12/13 11:39:07;;;;;;;9.25;8.20;;;;;;;;;;10285935;28;20517;-75
2023/12/13 11:44:05;;;;;;;10.02;8.63;;;;;;;;;;10299831;28;20041;-75
2023/12/13 11:49:02;;;;;;;12.05;9.10;;;;;;;;;;10307298;28;20060;-75
2023/12/13 11:53:58;;;;;;;9.25;7.80;;;;;;;;;;10290276;28;20068;-76
2023/12/13 11:58:54;;;;;;;8.35;7.55;;;;;;;;;;10296440;28;20068;-76
2023/12/13 12:03:51;;;;;;;10.05;7.55;;;;;;;;;;10300664;28;20050;-75
2023/12/13 12:08:48;;;;;;;11.63;8.25;;;;;;;;;;10298406;28;20543;-76
2023/12/13 12:13:44;;;;;;;9.18;8.23;;;;;;;;;;10313942;28;20036;-76
2023/12/13 12:18:41;;;;;;;8.38;7.55;;;;;;;;;;10294748;28;20092;-76
2023/12/13 12:23:38;;;;;;;8.38;7.57;;;;;;;;;;10297546;28;20723;-75
2023/12/13 12:28:35;;;;;;;8.75;7.80;;;;;;;;;;10285892;28;20056;-75
2023/12/13 12:33:31;;;;;;;9.63;8.45;;;;;;;;;;10303785;28;20041;-76
2023/12/13 12:38:28;;;;;;;8.75;8.05;;;;;;;;;;10302842;28;20068;-75
2023/12/13 12:43:24;;;;;;;8.98;8.18;;;;;;;;;;10306941;28;20052;-75
2023/12/13 12:48:21;;;;;;;8.07;7.38;;;;;;;;;;10298177;28;20102;-76
2023/12/13 12:53:17;;;;;;;8.50;7.57;;;;;;;;;;10302303;28;20080;-76
2023/12/13 12:58:14;;;;;;;8.18;7.13;;;;;;;;;;10306718;28;20069;-76
2023/12/13 13:03:10;;;;;;;7.72;6.93;;;;;;;;;;10311355;28;20062;-76
2023/12/13 13:08:06;;;;;;;8.00;7.20;;;;;;;;;;10287336;28;20517;-76
2023/12/13 13:13:03;;;;;;;8.75;7.60;;;;;;;;;;10300638;28;20071;-75
2023/12/13 13:18:00;;;;;;;8.20;7.43;;;;;;;;;;10284298;28;20496;-74
2023/12/13 13:22:56;;;;;;;7.75;6.75;;;;;;;;;;10304666;28;20118;-75
2023/12/13 13:27:53;;;;;;;11.52;7.45;;;;;;;;;;10310487;28;20127;-76
2023/12/13 13:32:49;;;;;;;8.40;7.70;;;;;;;;;;10275008;28;20045;-76
2023/12/13 13:37:46;;;;;;;8.70;7.60;;;;;;;;;;10308029;28;20044;-75
2023/12/13 13:42:42;;;;;;;7.35;6.63;;;;;;;;;;10284623;28;20059;-75
2023/12/13 13:47:39;;;;;;;7.60;6.90;;;;;;;;;;10296413;28;20080;-76
2023/12/13 13:52:36;;;;;;;8.00;7.20;;;;;;;;;;10296583;28;20076;-75
2023/12/13 13:57:34;;;;;;;8.43;7.63;;;;;;;;;;10295598;28;20079;-76
2023/12/13 14:02:31;;;;;;;7.45;6.75;;;;;;;;;;10279657;28;20052;-75
2023/12/13 14:07:28;;;;;;;7.55;6.85;;;;;;;;;;10285448;28;20056;-76
2023/12/13 14:12:24;;;;;;;7.70;7.00;;;;;;;;;;10290780;28;20346;-76
2023/12/13 14:17:21;;;;;;;7.55;6.95;;;;;;;;;;10295941;28;20036;-75
2023/12/13 14:22:17;;;;;;;8.20;7.40;;;;;;;;;;10307463;28;20045;-75
2023/12/13 14:27:14;;;;;;;8.10;7.30;;;;;;;;;;10304861;28;20056;-76
2023/12/13 14:32:11;;;;;;;8.77;7.97;;;;;;;;;;10303231;28;20566;-74
2023/12/13 14:37:07;;;;;;;7.55;6.85;;;;;;;;;;10306101;28;20040;-75
2023/12/13 14:42:04;;;;;;;8.07;7.38;;;;;;;;;;10303565;28;20106;-74
2023/12/13 14:47:00;;;;;;;8.27;7.57;;;;;;;;;;10281810;28;20439;-71
2023/12/13 14:51:57;;;;;;;7.00;6.40;;;;;;;;;;10303393;28;20049;-74
2023/12/13 14:56:54;;;;;;;13.55;7.22;;;;;;;;;;10298167;28;20040;-74
2023/12/13 15:01:50;;;;;;;7.40;6.70;;;;;;;;;;10304073;28;20068;-74
2023/12/13 15:06:46;;;;;;;8.98;8.18;;;;;;;;;;10299366;28;20052;-74
2023/12/13 15:11:42;;;;;;;7.97;7.18;;;;;;;;;;10303881;28;20425;-74
2023/12/13 15:16:39;;;;;;;7.65;6.93;;;;;;;;;;10302321;28;20103;-74
2023/12/13 15:21:36;;;;;;;8.10;7.40;;;;;;;;;;10305815;28;20428;-74
2023/12/13 15:26:32;;;;;;;8.05;7.28;;;;;;;;;;10306250;28;20106;-74
2023/12/13 15:31:29;;;;;;;7.53;6.88;;;;;;;;;;10307050;28;20056;-75
2023/12/13 15:36:25;;;;;;;7.82;7.22;;;;;;;;;;10300975;28;20532;-74
2023/12/13 15:41:21;;;;;;;7.15;6.65;;;;;;;;;;10308202;28;20087;-73
2023/12/13 15:46:19;;;;;;;7.93;7.25;;;;;;;;;;10288124;28;20393;-74
2023/12/13 15:51:16;;;;;;;8.70;6.95;;;;;;;;;;10291988;28;20814;-74
2023/12/13 15:56:12;;;;;;;8.10;7.30;;;;;;;;;;10297412;28;20058;-74
2023/12/13 16:01:09;;;;;;;9.18;8.27;;;;;;;;;;10293234;28;20052;-74
2023/12/13 16:06:06;;;;;;;8.68;7.82;;;;;;;;;;10297388;28;20500;-74
2023/12/13 16:11:07;;;;;;;9.10;8.30;;;;;;;;;;10301638;28;20045;-73
2023/12/13 16:16:04;;;;;;;8.23;7.53;;;;;;;;;;10304075;28;20045;-74
2023/12/13 16:21:01;;;;;;;8.30;7.50;;;;;;;;;;10295910;28;20098;-73
2023/12/13 16:25:58;;;;;;;8.75;8.05;;;;;;;;;;10288548;28;20090;-73
2023/12/13 16:30:58;;;;;;;8.75;7.95;;;;;;;;;;10290972;28;20061;-74
2023/12/13 16:35:55;;;;;;;8.55;7.75;;;;;;;;;;10307962;28;20424;-76
2023/12/13 16:40:51;;;;;;;8.43;7.72;;;;;;;;;;10308529;28;20568;-74
2023/12/13 16:45:47;;;;;;;8.63;7.75;;;;;;;;;;10298598;28;20087;-75
2023/12/13 16:50:44;;;;;;;8.40;7.70;;;;;;;;;;10301856;28;20041;-74
2023/12/13 16:55:40;;;;;;;8.52;7.72;;;;;;;;;;10295544;28;20351;-74
2023/12/13 17:00:37;;;;;;;8.63;7.85;;;;;;;;;;10300300;28;20416;-73
2023/12/13 17:05:33;;;;;;;8.82;8.02;;;;;;;;;;10307906;28;20052;-74
2023/12/13 17:10:32;;;;;;;10.02;9.07;;;;;;;;;;10301912;28;20067;-74
2023/12/13 17:15:28;;;;;;;8.88;8.13;;;;;;;;;;10281117;28;20097;-74
2023/12/13 17:20:25;;;;;;;9.27;8.38;;;;;;;;;;10289747;28;21222;-73
2023/12/13 17:25:21;;;;;;;9.63;8.73;;;;;;;;;;10307825;28;20527;-75
2023/12/13 17:30:18;;;;;;;9.43;8.52;;;;;;;;;;10295510;28;20132;-74
2023/12/13 17:35:14;;;;;;;10.15;9.15;;;;;;;;;;10311496;28;20056;-76
2023/12/13 17:40:10;;;;;;;10.30;9.30;;;;;;;;;;10311965;28;20145;-74
2023/12/13 17:45:07;;;;;;;10.07;9.02;;;;;;;;;;10293108;28;20048;-74
2023/12/13 17:50:04;;;;;;;9.75;8.85;;;;;;;;;;10311762;28;20080;-74
2023/12/13 17:55:01;;;;;;;10.13;9.23;;;;;;;;;;10306013;28;20067;-74
2023/12/13 17:59:58;;;;;;;10.10;9.15;;;;;;;;;;10290125;28;20155;-74
2023/12/13 18:04:54;;;;;;;9.00;8.10;;;;;;;;;;10312538;28;20045;-74
2023/12/13 18:09:51;;;;;;;9.85;8.85;;;;;;;;;;10302068;28;20143;-74
2023/12/13 18:14:47;;;;;;;8.55;7.70;;;;;;;;;;10296822;28;20386;-76
2023/12/13 18:19:43;;;;;;;9.30;8.43;;;;;;;;;;10294705;28;20044;-76
2023/12/13 18:24:40;;;;;;;9.30;8.43;;;;;;;;;;10293109;28;20056;-76
2023/12/13 18:29:37;;;;;;;9.13;8.32;;;;;;;;;;10305474;28;20052;-75
2023/12/13 18:34:34;;;;;;;9.30;8.35;;;;;;;;;;10300854;28;20053;-76
2023/12/13 18:39:30;;;;;;;8.27;7.57;;;;;;;;;;10301903;28;20037;-76
2023/12/13 18:44:27;;;;;;;8.75;8.00;;;;;;;;;;10298122;28;20052;-76
2023/12/13 18:49:28;;;;;;;9.23;7.88;;;;;;;;;;10283928;28;20049;-76
2023/12/13 18:54:25;;;;;;;8.35;7.63;;;;;;;;;;10307364;28;20045;-76
2023/12/13 18:59:22;;;;;;;8.77;7.97;;;;;;;;;;10295173;28;20514;-75
2023/12/13 19:04:18;;;;;;;8.32;7.55;;;;;;;;;;10281810;28;20052;-76
2023/12/13 19:09:15;;;;;;;8.07;7.38;;;;;;;;;;10296629;28;20049;-76
2023/12/13 19:14:11;;;;;;;8.57;7.82;;;;;;;;;;10304777;28;20121;-75
2023/12/13 19:19:08;;;;;;;8.90;7.68;;;;;;;;;;10310843;28;20511;-75
2023/12/13 19:24:04;;;;;;;7.78;7.03;;;;;;;;;;10310390;28;20123;-75
2023/12/13 19:29:03;;;;;;;8.48;7.38;;;;;;;;;;10302250;28;20044;-76
2023/12/13 19:34:00;;;;;;;7.80;6.80;;;;;;;;;;10285249;28;20091;-74
2023/12/13 19:38:56;;;;;;;7.65;6.90;;;;;;;;;;10300312;28;20078;-75
2023/12/13 19:43:52;;;;;;;8.70;7.90;;;;;;;;;;10295917;28;20040;-75
2023/12/13 19:48:49;;;;;;;7.60;6.90;;;;;;;;;;10295582;28;20476;-75
2023/12/13 19:53:45;;;;;;;8.57;7.57;;;;;;;;;;10303892;28;20068;-76
2023/12/13 19:58:41;;;;;;;10.60;7.93;;;;;;;;;;10276230;28;20072;-76
2023/12/13 20:03:38;;;;;;;7.63;6.82;;;;;;;;;;10294699;28;20048;-75
2023/12/13 20:08:34;;;;;;;9.38;8.48;;;;;;;;;;10301251;28;20516;-75
2023/12/13 20:13:31;;;;;;;9.40;8.10;;;;;;;;;;10280018;28;20044;-74
2023/12/13 20:18:41;;;;;;;8.68;7.88;;;;;;;;;;10300406;28;20085;-74
2023/12/13 20:23:37;;;;;;;10.82;8.55;;;;;;;;;;10296769;28;20463;-75
2023/12/13 20:28:34;;;;;;;8.65;7.85;;;;;;;;;;10294700;28;20053;-75
2023/12/13 20:33:30;;;;;;;8.15;7.45;;;;;;;;;;10304522;28;20056;-74
2023/12/13 20:38:27;;;;;;;7.95;7.10;;;;;;;;;;10308888;28;20040;-75
2023/12/13 20:43:24;;;;;;;8.25;7.03;;;;;;;;;;10307289;28;20065;-75
2023/12/13 20:48:20;;;;;;;7.45;6.70;;;;;;;;;;10307241;28;20076;-75
2023/12/13 20:53:16;;;;;;;7.72;6.93;;;;;;;;;;10291940;28;20045;-75
2023/12/13 20:58:13;;;;;;;8.18;7.38;;;;;;;;;;10301574;28;20514;-75
2023/12/13 21:03:09;;;;;;;11.00;7.30;;;;;;;;;;10298818;28;20424;-75
2023/12/13 21:08:06;;;;;;;8.02;7.22;;;;;;;;;;10299664;28;20091;-75
2023/12/13 21:13:02;;;;;;;11.27;7.20;;;;;;;;;;10299739;28;20501;-74
2023/12/13 21:17:59;;;;;;;9.20;7.32;;;;;;;;;;10298497;28;20083;-75
2023/12/13 21:22:55;;;;;;;9.88;7.40;;;;;;;;;;10302007;28;20044;-78
2023/12/13 21:27:54;;;;;;;7.57;6.45;;;;;;;;;;10308207;28;20147;-76
2023/12/13 21:32:50;;;;;;;7.47;6.70;;;;;;;;;;10314981;28;20052;-76
2023/12/13 21:37:47;;;;;;;9.10;6.80;;;;;;;;;;10296991;28;20128;-76
2023/12/13 21:42:43;;;;;;;7.93;6.38;;;;;;;;;;10311338;28;20512;-74
2023/12/13 21:47:40;;;;;;;9.38;7.20;;;;;;;;;;10310325;28;20055;-76
2023/12/13 21:52:37;;;;;;;8.27;6.90;;;;;;;;;;10307519;28;20086;-76
2023/12/13 21:57:34;;;;;;;9.00;6.60;;;;;;;;;;10287249;28;20056;-76
2023/12/13 22:02:30;;;;;;;7.60;6.80;;;;;;;;;;10281416;28;20056;-75
2023/12/13 22:07:27;;;;;;;7.22;6.47;;;;;;;;;;10297979;28;20055;-76
2023/12/13 22:12:26;;;;;;;5.78;5.00;;;;;;;;;;10314764;28;20045;-75
2023/12/13 22:17:23;;;;;;;9.80;6.53;;;;;;;;;;10284787;28;20060;-75
2023/12/13 22:22:19;;;;;;;10.00;6.30;;;;;;;;;;10294547;28;20049;-76
2023/12/13 22:27:16;;;;;;;7.00;6.30;;;;;;;;;;10300671;28;20079;-75
2023/12/13 22:32:12;;;;;;;7.53;5.75;;;;;;;;;;10307363;28;20480;-75
2023/12/13 22:37:09;;;;;;;9.02;5.43;;;;;;;;;;10309001;28;20051;-75
2023/12/13 22:42:05;;;;;;;6.63;5.70;;;;;;;;;;10301323;28;20056;-76
2023/12/13 22:47:02;;;;;;;6.55;5.35;;;;;;;;;;10310781;28;20067;-74
2023/12/13 22:51:59;;;;;;;7.18;5.93;;;;;;;;;;10300864;28;20512;-75
2023/12/13 22:57:15;;;;;;;5.90;5.25;;;;;;;;;;10297973;28;20113;-75
2023/12/13 23:02:11;;;;;;;8.40;5.00;;;;;;;;;;10303609;28;20059;-76
2023/12/13 23:07:08;;;;;;;4.78;4.28;;;;;;;;;;10290832;28;20055;-76
2023/12/13 23:12:04;;;;;;;8.70;5.28;;;;;;;;;;10275001;28;20045;-75
2023/12/13 23:17:01;;;;;;;6.75;5.40;;;;;;;;;;10301762;28;20733;-75
2023/12/13 23:21:57;;;;;;;7.40;5.35;;;;;;;;;;10302644;28;20044;-75
2023/12/13 23:26:53;;;;;;;6.53;5.20;;;;;;;;;;10296968;28;20087;-74
2023/12/13 23:31:50;;;;;;;6.05;4.80;;;;;;;;;;10303414;28;20412;-75
2023/12/13 23:36:46;;;;;;;4.95;4.22;;;;;;;;;;10302756;28;20048;-76
2023/12/13 23:41:43;;;;;;;7.88;4.70;;;;;;;;;;10280820;28;20077;-75
2023/12/13 23:46:39;;;;;;;7.43;4.70;;;;;;;;;;10296030;28;20040;-76
2023/12/13 23:51:35;;;;;;;8.60;5.00;;;;;;;;;;10292415;28;20045;-76
2023/12/13 23:56:35;;;;;;;7.28;4.35;;;;;;;;;;10285778;28;20048;-76
